createdAt,value
2022-08-03T00:04:21.123Z,23.90
2022-08-03T00:09:35.538Z,23.88
2022-08-03T00:14:37.339Z,23.78
2022-08-03T00:19:38.642Z,23.72
2022-08-03T00:24:39.954Z,23.56
2022-08-03T00:30:00.160Z,23.51
2022-08-03T00:35:08.088Z,23.47
2022-08-03T00:40:12.863Z,23.37
2022-08-03T00:45:14.476Z,23.37
2022-08-03T00:50:17.021Z,23.28
2022-08-03T00:55:18.911Z,23.24
2022-08-03T01:00:24.102Z,23.18
2022-08-03T01:05:25.705Z,23.18
2022-08-03T01:10:31.576Z,23.06
2022-08-03T01:15:46.237Z,23.00
2022-08-03T01:20:53.359Z,23.07
2022-08-03T01:26:12.462Z,23.03
2022-08-03T01:31:18.639Z,22.94
2022-08-03T01:36:24.818Z,22.89
2022-08-03T01:41:31.795Z,22.87
2022-08-03T01:46:34.758Z,22.81
2022-08-03T01:52:03.098Z,22.78
2022-08-03T01:56:59.725Z,22.65
2022-08-03T02:02:27.777Z,22.53
2022-08-03T02:07:26.768Z,22.48
2022-08-03T02:12:31.298Z,22.56
2022-08-03T02:17:39.319Z,22.56
2022-08-03T02:22:43.333Z,22.45
2022-08-03T02:27:55.418Z,22.41
2022-08-03T02:32:58.769Z,22.31
2022-08-03T02:38:02.141Z,22.28
2022-08-03T02:43:07.762Z,22.32
2022-08-03T02:48:11.530Z,22.20
2022-08-03T02:53:14.448Z,22.20
2022-08-03T02:58:19.726Z,22.16
2022-08-03T03:03:22.301Z,22.07
2022-08-03T03:08:28.420Z,22.01
2022-08-03T03:13:32.325Z,21.95
2022-08-03T03:18:34.851Z,21.96
2022-08-03T03:23:38.386Z,22.00
2022-08-03T03:28:40.330Z,22.07
2022-08-03T03:33:41.951Z,21.99
2022-08-03T03:38:43.357Z,21.94
2022-08-03T03:43:44.978Z,21.80
2022-08-03T03:48:46.506Z,21.71
2022-08-03T03:54:02.742Z,21.78
2022-08-03T03:59:04.496Z,21.78
2022-08-03T04:04:24.674Z,21.75
2022-08-03T04:09:44.648Z,21.85
2022-08-03T04:14:48.279Z,21.86
2022-08-03T04:19:53.595Z,21.84
2022-08-03T04:25:08.965Z,21.88
2022-08-03T04:30:10.942Z,21.85
2022-08-03T04:35:12.390Z,21.84
2022-08-03T04:40:22.777Z,21.87
2022-08-03T04:45:25.330Z,21.84
2022-08-03T04:50:28.014Z,21.81
2022-08-03T04:55:31.024Z,21.85
2022-08-03T05:00:32.705Z,21.71
2022-08-03T05:05:48.892Z,21.82
2022-08-03T05:10:53.121Z,21.92
2022-08-03T05:15:54.485Z,21.98
2022-08-03T05:20:55.853Z,21.96
2022-08-03T05:25:57.280Z,21.93
2022-08-03T05:30:58.750Z,22.04
2022-08-03T05:36:03.558Z,22.17
2022-08-03T05:41:23.156Z,22.24
2022-08-03T05:46:27.057Z,22.32
2022-08-03T05:51:28.852Z,22.39
2022-08-03T05:56:30.282Z,22.53
2022-08-03T06:01:33.037Z,22.53
2022-08-03T06:06:34.416Z,22.71
2022-08-03T06:11:36.357Z,22.70
2022-08-03T06:16:37.767Z,22.80
2022-08-03T06:21:39.937Z,22.97
2022-08-03T06:26:41.307Z,23.01
2022-08-03T06:31:42.677Z,23.08
2022-08-03T06:36:44.109Z,23.34
2022-08-03T06:41:45.642Z,23.49
2022-08-03T06:46:47.753Z,23.74
2022-08-03T06:52:04.505Z,23.88
2022-08-03T06:57:08.392Z,24.06
2022-08-03T07:02:10.331Z,24.22
2022-08-03T07:07:11.718Z,24.34
2022-08-03T07:12:13.034Z,24.51
2022-08-03T07:17:14.625Z,24.59
2022-08-03T07:22:16.239Z,24.79
2022-08-03T07:27:17.956Z,25.09
2022-08-03T07:32:19.679Z,25.25
2022-08-03T07:37:21.419Z,25.45
2022-08-03T07:42:25.730Z,25.64
2022-08-03T07:47:35.683Z,25.97
2022-08-03T07:52:50.249Z,26.01
2022-08-03T07:58:03.980Z,26.23
2022-08-03T08:03:05.646Z,26.47
2022-08-03T08:08:07.269Z,26.88
2022-08-03T08:13:08.564Z,27.09
2022-08-03T08:18:09.896Z,27.34
2022-08-03T08:23:40.834Z,27.29
2022-08-03T08:28:33.818Z,27.31
2022-08-03T08:34:03.247Z,27.62
2022-08-03T08:38:57.402Z,28.14
2022-08-03T08:44:00.175Z,28.14
2022-08-03T08:49:03.793Z,28.68
2022-08-03T08:54:08.386Z,29.21
2022-08-03T08:59:09.969Z,29.65
2022-08-03T09:04:11.620Z,29.94
2022-08-03T09:10:00.118Z,29.92
2022-08-03T09:14:42.252Z,30.23
2022-08-03T09:20:09.853Z,30.54
2022-08-03T09:25:27.228Z,30.90
2022-08-03T09:30:34.169Z,30.89
2022-08-03T09:35:53.478Z,31.16
2022-08-03T09:41:00.095Z,31.18
2022-08-03T09:46:07.579Z,31.68
2022-08-03T09:51:14.227Z,31.93
2022-08-03T09:56:41.676Z,32.22
2022-08-03T10:01:43.301Z,32.38
2022-08-03T10:06:45.593Z,32.92
2022-08-03T10:11:47.454Z,33.18
2022-08-03T10:16:49.602Z,33.24
2022-08-03T10:21:56.492Z,33.69
2022-08-03T10:27:04.380Z,34.28
2022-08-03T10:32:43.348Z,34.62
2022-08-03T10:37:58.831Z,34.99
2022-08-03T10:43:09.848Z,35.34
2022-08-03T10:48:12.105Z,36.10
2022-08-03T10:53:14.758Z,36.28
2022-08-03T10:58:53.402Z,36.49
2022-08-03T11:03:59.096Z,36.65
2022-08-03T11:09:09.540Z,36.96
2022-08-03T11:14:13.104Z,36.76
2022-08-03T11:19:16.790Z,36.93
2022-08-03T11:24:36.478Z,37.45
2022-08-03T11:29:53.814Z,37.33
2022-08-03T11:35:08.369Z,37.61
2022-08-03T11:40:33.343Z,37.98
2022-08-03T11:45:36.113Z,37.77
2022-08-03T11:50:39.628Z,37.39
2022-08-03T11:55:43.378Z,36.87
2022-08-03T12:00:44.928Z,37.02
2022-08-03T12:05:53.037Z,37.22
2022-08-03T12:10:56.776Z,36.80
2022-08-03T12:15:59.182Z,36.83
2022-08-03T12:21:11.029Z,36.59
2022-08-03T12:26:12.365Z,36.77
2022-08-03T12:31:13.871Z,36.73
2022-08-03T12:36:15.369Z,36.96
2022-08-03T12:41:28.855Z,36.85
2022-08-03T12:46:39.397Z,36.40
2022-08-03T12:51:42.201Z,36.34
2022-08-03T12:57:10.918Z,36.57
2022-08-03T13:02:25.052Z,36.53
2022-08-03T13:07:26.560Z,36.49
2022-08-03T13:12:29.789Z,36.19
2022-08-03T13:17:31.203Z,36.07
2022-08-03T13:22:33.494Z,36.04
2022-08-03T13:28:13.802Z,35.90
2022-08-03T13:32:58.180Z,35.81
2022-08-03T13:38:00.197Z,35.79
2022-08-03T13:43:01.707Z,35.76
2022-08-03T13:48:03.693Z,35.68
2022-08-03T13:53:05.263Z,35.63
2022-08-03T13:58:09.891Z,35.62
2022-08-03T14:03:14.988Z,35.33
2022-08-03T14:08:17.006Z,35.23
2022-08-03T14:13:18.819Z,35.19
2022-08-03T14:18:29.307Z,35.13
2022-08-03T14:23:37.524Z,34.94
2022-08-03T14:28:39.138Z,34.80
2022-08-03T14:33:40.889Z,34.53
2022-08-03T14:38:42.296Z,34.43
2022-08-03T14:44:01.522Z,34.27
2022-08-03T14:50:37.282Z,34.15
2022-08-03T14:54:26.546Z,34.13
2022-08-03T14:59:27.957Z,34.08
2022-08-03T15:04:49.230Z,34.02
2022-08-03T15:09:50.635Z,33.87
2022-08-03T15:14:52.087Z,33.78
2022-08-03T15:20:03.797Z,33.87
2022-08-03T15:26:31.752Z,33.86
2022-08-03T15:30:37.605Z,33.75
2022-08-03T15:35:38.961Z,33.69
2022-08-03T15:40:40.284Z,33.50
2022-08-03T15:45:42.857Z,33.45
2022-08-03T15:50:44.466Z,33.42
2022-08-03T15:55:46.106Z,33.40
2022-08-03T16:00:47.494Z,33.34
2022-08-03T16:05:48.867Z,33.27
2022-08-03T16:10:50.251Z,33.34
2022-08-03T16:15:52.409Z,33.46
2022-08-03T16:20:53.729Z,33.44
2022-08-03T16:25:55.067Z,33.31
2022-08-03T16:30:56.418Z,33.25
2022-08-03T16:35:57.746Z,33.20
2022-08-03T16:40:59.215Z,33.19
2022-08-03T16:46:00.547Z,33.21
2022-08-03T16:51:02.826Z,33.34
2022-08-03T16:56:09.974Z,33.19
2022-08-03T17:01:21.635Z,33.12
2022-08-03T17:06:26.168Z,33.13
2022-08-03T17:11:38.229Z,33.08
2022-08-03T17:16:45.075Z,32.88
2022-08-03T17:21:58.007Z,32.82
2022-08-03T17:27:03.777Z,32.80
2022-08-03T17:32:13.900Z,32.85
2022-08-03T17:37:50.660Z,32.81
2022-08-03T17:42:43.298Z,32.77
2022-08-03T17:47:44.870Z,32.71
2022-08-03T17:53:07.640Z,32.55
2022-08-03T17:58:43.739Z,32.36
2022-08-03T18:03:57.723Z,32.22
2022-08-03T18:09:05.251Z,32.08
2022-08-03T18:14:36.552Z,31.97
2022-08-03T18:20:01.874Z,31.83
2022-08-03T18:25:00.341Z,31.70
2022-08-03T18:30:09.599Z,31.62
2022-08-03T18:35:14.931Z,31.51
2022-08-03T18:40:20.762Z,31.38
2022-08-03T18:45:57.552Z,31.27
2022-08-03T18:50:50.926Z,31.17
2022-08-03T18:56:22.839Z,31.09
2022-08-03T19:01:58.186Z,30.97
2022-08-03T19:06:49.258Z,30.87
2022-08-03T19:12:13.336Z,30.77
2022-08-03T19:17:21.278Z,30.66
2022-08-03T19:22:27.074Z,30.57
2022-08-03T19:27:30.677Z,30.47
2022-08-03T19:32:34.523Z,30.39
2022-08-03T19:37:39.831Z,30.31
2022-08-03T19:42:46.283Z,30.20
2022-08-03T19:47:52.262Z,30.13
2022-08-03T19:52:55.229Z,30.05
2022-08-03T19:57:58.436Z,29.94
2022-08-03T20:03:01.157Z,29.88
2022-08-03T20:08:05.405Z,29.78
2022-08-03T20:13:06.980Z,29.71
2022-08-03T20:18:16.609Z,29.66
2022-08-03T20:23:19.568Z,29.59
2022-08-03T20:28:28.061Z,29.53
2022-08-03T20:33:46.326Z,29.46
2022-08-03T20:38:52.003Z,29.38
2022-08-03T20:43:53.581Z,29.28
2022-08-03T20:48:57.178Z,29.21
2022-08-03T20:59:23.274Z,29.08
2022-08-03T21:04:25.603Z,29.02
2022-08-03T21:09:33.534Z,28.96
2022-08-03T21:13:07.722Z,29.14
2022-08-03T21:15:04.191Z,28.85
2022-08-03T21:20:07.365Z,28.75
2022-08-03T21:25:09.279Z,28.66
2022-08-03T21:30:11.852Z,28.56
2022-08-03T21:35:13.339Z,28.45
2022-08-03T21:40:16.474Z,28.41
2022-08-03T21:45:17.999Z,28.31
2022-08-03T21:50:20.463Z,28.21
2022-08-03T21:55:25.914Z,28.11
2022-08-03T22:00:27.509Z,28.03
2022-08-03T22:05:43.822Z,28.01
2022-08-03T22:10:47.418Z,27.96
2022-08-03T22:15:48.817Z,27.90
2022-08-03T22:20:51.997Z,27.87
2022-08-03T22:25:56.837Z,27.75
2022-08-03T22:31:00.009Z,27.66
2022-08-03T22:36:23.601Z,27.63
2022-08-03T22:41:25.029Z,27.51
2022-08-03T22:46:27.355Z,27.39
2022-08-03T22:51:29.053Z,27.28
2022-08-03T22:56:30.412Z,27.16
2022-08-03T23:01:41.475Z,27.14
2022-08-03T23:06:48.515Z,27.04
2022-08-03T23:11:53.268Z,27.03
2022-08-03T23:16:56.325Z,26.96
2022-08-03T23:22:03.838Z,26.92
2022-08-03T23:27:07.203Z,26.84
2022-08-03T23:32:10.077Z,26.75
2022-08-03T23:37:13.830Z,26.70
2022-08-03T23:42:19.491Z,26.65
2022-08-03T23:47:21.117Z,26.61
2022-08-03T23:52:43.318Z,26.53
2022-08-03T23:58:11.181Z,26.51
